createdAt,value
2022-10-23T00:00:15.641Z,100510.00
2022-10-23T00:06:18.098Z,100494.00
2022-10-23T00:12:20.246Z,100503.00
2022-10-23T00:18:22.515Z,100496.00
2022-10-23T00:24:24.698Z,100492.00
2022-10-23T00:30:26.800Z,100472.00
2022-10-23T00:36:28.857Z,100478.00
2022-10-23T00:42:31.201Z,100478.00
2022-10-23T00:48:33.614Z,100476.00
2022-10-23T00:54:39.631Z,100473.00
2022-10-23T01:00:49.130Z,100467.00
2022-10-23T01:07:15.626Z,100461.00
2022-10-23T01:13:28.095Z,100449.00
2022-10-23T01:19:54.822Z,100459.00
2022-10-23T01:26:15.464Z,100462.00
2022-10-23T01:32:27.082Z,100460.00
2022-10-23T01:38:54.096Z,100458.00
2022-10-23T01:45:16.389Z,100460.00
2022-10-23T01:51:21.874Z,100457.00
2022-10-23T01:57:28.344Z,100436.00
2022-10-23T02:03:33.517Z,100421.00
2022-10-23T02:09:35.727Z,100450.00
2022-10-23T02:15:46.113Z,100457.00
2022-10-23T02:21:51.192Z,100460.00
2022-10-23T02:27:58.373Z,100468.00
2022-10-23T02:34:08.167Z,100463.00
2022-10-23T02:40:12.030Z,100464.00
2022-10-23T02:46:30.678Z,100446.00
2022-10-23T02:52:55.751Z,100464.00
2022-10-23T02:59:07.082Z,100459.00
2022-10-23T03:05:15.861Z,100474.00
2022-10-23T03:11:18.251Z,100453.00
2022-10-23T03:17:20.550Z,100460.00
2022-10-23T03:23:23.079Z,100472.00
2022-10-23T03:29:25.247Z,100486.00
2022-10-23T03:35:27.323Z,100490.00
2022-10-23T03:41:29.562Z,100487.00
2022-10-23T03:47:32.755Z,100509.00
2022-10-23T03:53:35.937Z,100511.00
2022-10-23T03:59:39.105Z,100508.00
2022-10-23T04:05:43.251Z,100523.00
2022-10-23T04:11:45.447Z,100545.00
2022-10-23T04:17:47.531Z,100545.00
2022-10-23T04:23:49.708Z,100538.00
2022-10-23T04:29:55.595Z,100542.00
2022-10-23T04:36:00.430Z,100555.00
2022-10-23T04:42:02.648Z,100544.00
2022-10-23T04:48:05.006Z,100560.00
2022-10-23T04:54:26.812Z,100569.00
2022-10-23T05:00:55.197Z,100600.00
2022-10-23T05:07:01.731Z,100594.00
2022-10-23T05:13:13.857Z,100603.00
2022-10-23T05:19:24.297Z,100595.00
2022-10-23T05:25:26.822Z,100604.00
2022-10-23T05:31:38.359Z,100619.00
2022-10-23T05:37:48.352Z,100659.00
2022-10-23T05:43:55.800Z,100669.00
2022-10-23T05:50:16.846Z,100685.00
2022-10-23T05:56:21.734Z,100690.00
2022-10-23T06:02:44.746Z,100708.00
2022-10-23T06:09:08.891Z,100705.00
2022-10-23T06:15:14.833Z,100713.00
2022-10-23T06:21:38.105Z,100670.00
2022-10-23T06:27:40.398Z,100708.00
2022-10-23T06:33:43.974Z,100617.00
2022-10-23T06:39:46.761Z,100590.00
2022-10-23T06:45:52.430Z,100618.00
2022-10-23T06:51:57.441Z,100688.00
2022-10-23T06:57:59.755Z,100775.00
2022-10-23T07:04:02.036Z,100798.00
2022-10-23T07:10:04.293Z,100813.00
2022-10-23T07:16:20.626Z,100623.00
2022-10-23T07:22:23.939Z,100658.00
2022-10-23T07:28:39.086Z,100717.00
2022-10-23T07:34:41.278Z,100717.00
2022-10-23T07:40:54.078Z,100760.00
2022-10-23T07:46:56.755Z,100745.00
2022-10-23T07:52:59.342Z,100810.00
2022-10-23T07:59:14.262Z,100678.00
2022-10-23T08:05:20.723Z,100772.00
2022-10-23T08:11:35.467Z,100836.00
2022-10-23T08:17:40.394Z,100850.00
2022-10-23T08:23:56.211Z,100860.00
2022-10-23T08:29:58.955Z,100859.00
2022-10-23T08:36:02.446Z,100865.00
2022-10-23T08:42:19.542Z,100864.00
2022-10-23T08:48:40.423Z,100859.00
2022-10-23T08:55:14.335Z,100871.00
2022-10-23T09:01:33.488Z,100882.00
2022-10-23T09:07:57.082Z,100886.00
2022-10-23T09:14:27.951Z,100898.00
2022-10-23T09:20:35.185Z,100907.00
2022-10-23T09:26:37.308Z,100901.00
2022-10-23T09:32:39.529Z,100908.00
2022-10-23T09:38:49.727Z,100899.00
2022-10-23T09:44:54.891Z,100902.00
2022-10-23T09:51:03.416Z,100892.00
2022-10-23T09:57:32.887Z,100886.00
2022-10-23T10:03:37.729Z,100889.00
2022-10-23T10:09:45.443Z,100874.00
2022-10-23T10:15:53.040Z,100884.00
2022-10-23T10:22:24.498Z,100867.00
2022-10-23T10:29:02.570Z,100850.00
2022-10-23T10:35:32.210Z,100851.00
2022-10-23T10:42:03.256Z,100852.00
2022-10-23T10:48:16.200Z,100844.00
2022-10-23T10:55:23.338Z,100844.00
2022-10-23T11:01:35.202Z,100846.00
2022-10-23T11:07:43.428Z,100831.00
2022-10-23T11:13:46.024Z,100789.00
2022-10-23T11:19:55.280Z,100718.00
2022-10-23T11:26:22.406Z,100725.00
2022-10-23T11:32:43.875Z,100715.00
2022-10-23T11:38:51.032Z,100732.00
2022-10-23T11:44:52.995Z,100717.00
2022-10-23T11:50:55.889Z,100725.00
2022-10-23T11:57:11.928Z,100836.00
2022-10-23T12:03:22.960Z,100839.00
2022-10-23T12:09:40.772Z,100834.00
2022-10-23T12:15:56.030Z,100830.00
2022-10-23T12:22:02.516Z,100824.00
2022-10-23T12:28:38.523Z,100825.00
2022-10-23T12:34:49.246Z,100825.00
2022-10-23T12:40:53.646Z,100826.00
2022-10-23T12:46:59.604Z,100823.00
2022-10-23T12:53:07.900Z,100828.00
2022-10-23T12:59:38.425Z,100831.00
2022-10-23T13:05:40.777Z,100823.00
2022-10-23T13:11:43.347Z,100825.00
2022-10-23T13:17:58.303Z,100825.00
2022-10-23T13:24:00.327Z,100831.00
2022-10-23T13:30:03.977Z,100844.00
2022-10-23T13:36:14.003Z,100836.00
2022-10-23T13:42:16.514Z,100837.00
2022-10-23T13:48:20.624Z,100836.00
2022-10-23T13:54:25.132Z,100850.00
2022-10-23T14:00:30.444Z,100848.00
2022-10-23T14:06:33.075Z,100848.00
2022-10-23T14:12:42.430Z,100846.00
2022-10-23T14:18:45.243Z,100870.00
2022-10-23T14:24:47.297Z,100856.00
2022-10-23T14:30:49.497Z,100849.00
2022-10-23T14:37:04.006Z,100856.00
2022-10-23T14:43:10.097Z,100849.00
2022-10-23T14:49:12.280Z,100852.00
2022-10-23T14:55:14.520Z,100865.00
2022-10-23T15:01:16.754Z,100859.00
2022-10-23T15:07:18.960Z,100855.00
2022-10-23T15:13:21.080Z,100856.00
2022-10-23T15:19:23.209Z,100854.00
2022-10-23T15:25:25.322Z,100856.00
2022-10-23T15:31:30.342Z,100860.00
2022-10-23T15:37:32.379Z,100870.00
2022-10-23T15:43:34.587Z,100894.00
2022-10-23T15:49:37.365Z,100901.00
2022-10-23T15:55:39.226Z,100908.00
2022-10-23T16:01:41.634Z,100920.00
2022-10-23T16:07:43.840Z,100935.00
2022-10-23T16:13:46.343Z,100943.00
2022-10-23T16:19:48.738Z,100950.00
2022-10-23T16:25:51.435Z,100957.00
2022-10-23T16:31:54.492Z,100964.00
2022-10-23T16:37:56.770Z,100964.00
2022-10-23T16:43:59.789Z,100981.00
2022-10-23T16:50:18.832Z,100994.00
2022-10-23T16:56:30.680Z,101003.00
2022-10-23T17:02:33.229Z,101014.00
2022-10-23T17:08:35.510Z,101027.00
2022-10-23T17:14:39.107Z,101036.00
2022-10-23T17:20:41.289Z,101040.00
2022-10-23T17:26:43.682Z,101034.00
2022-10-23T17:32:46.801Z,101033.00
2022-10-23T17:38:49.415Z,101031.00
2022-10-23T17:44:51.458Z,101028.00
2022-10-23T17:51:07.343Z,101047.00
2022-10-23T17:57:09.848Z,101041.00
2022-10-23T18:03:14.522Z,101058.00
2022-10-23T18:09:20.022Z,101059.00
2022-10-23T18:15:22.358Z,101068.00
2022-10-23T18:21:25.165Z,101073.00
2022-10-23T18:27:27.464Z,101072.00
2022-10-23T18:33:29.561Z,101071.00
2022-10-23T18:39:31.831Z,101085.00
2022-10-23T18:45:35.093Z,101086.00
2022-10-23T18:51:37.536Z,101084.00
2022-10-23T18:57:40.290Z,101092.00
2022-10-23T19:03:42.654Z,101085.00
2022-10-23T19:09:45.092Z,101089.00
2022-10-23T19:15:47.454Z,101087.00
2022-10-23T19:21:50.614Z,101102.00
2022-10-23T19:27:55.733Z,101114.00
2022-10-23T19:33:57.874Z,101126.00
2022-10-23T19:39:59.973Z,101127.00
2022-10-23T19:46:06.315Z,101114.00
2022-10-23T19:52:11.723Z,101124.00
2022-10-23T19:58:14.049Z,101121.00
2022-10-23T20:04:17.352Z,101109.00
2022-10-23T20:10:19.819Z,101123.00
2022-10-23T20:16:25.210Z,101126.00
2022-10-23T20:22:27.618Z,101122.00
2022-10-23T20:28:29.893Z,101111.00
2022-10-23T20:34:32.719Z,101124.00
2022-10-23T20:40:34.761Z,101125.00
2022-10-23T20:46:37.559Z,101122.00
2022-10-23T20:52:39.583Z,101131.00
2022-10-23T20:58:41.943Z,101120.00
2022-10-23T21:04:43.992Z,101132.00
2022-10-23T21:10:47.378Z,101122.00
2022-10-23T21:16:49.490Z,101119.00
2022-10-23T21:22:54.684Z,101127.00
2022-10-23T21:29:17.000Z,101125.00
2022-10-23T21:35:19.221Z,101106.00
2022-10-23T21:41:27.102Z,101118.00
2022-10-23T21:47:29.451Z,101115.00
2022-10-23T21:53:32.244Z,101110.00
2022-10-23T21:59:35.876Z,101110.00
2022-10-23T22:05:38.401Z,101119.00
2022-10-23T22:11:40.929Z,101124.00
2022-10-23T22:17:43.420Z,101141.00
2022-10-23T22:23:46.334Z,101135.00
2022-10-23T22:29:48.489Z,101130.00
2022-10-23T22:35:50.692Z,101108.00
2022-10-23T22:41:52.968Z,101108.00
2022-10-23T22:47:54.966Z,101135.00
2022-10-23T22:53:58.739Z,101127.00
2022-10-23T23:00:00.842Z,101122.00
2022-10-23T23:06:04.603Z,101135.00
2022-10-23T23:12:08.280Z,101149.00
2022-10-23T23:18:10.437Z,101150.00
2022-10-23T23:24:12.728Z,101148.00
2022-10-23T23:30:14.819Z,101157.00
2022-10-23T23:36:20.161Z,101161.00
2022-10-23T23:42:22.773Z,101149.00
2022-10-23T23:48:25.235Z,101140.00
2022-10-23T23:54:27.431Z,101138.00
